createdAt,value
2017-09-26T00:00:04.985Z,77.70
2017-09-26T00:02:32.543Z,78.30
2017-09-26T00:05:00.098Z,78.70
2017-09-26T00:07:27.694Z,78.20
2017-09-26T00:09:55.256Z,78.20
2017-09-26T00:12:22.813Z,78.40
2017-09-26T00:14:50.373Z,78.50
2017-09-26T00:17:17.931Z,78.40
2017-09-26T00:19:45.516Z,78.00
2017-09-26T00:22:13.833Z,77.80
2017-09-26T00:24:41.393Z,77.80
2017-09-26T00:27:08.952Z,78.20
2017-09-26T00:29:36.507Z,77.70
2017-09-26T00:32:04.098Z,77.80
2017-09-26T00:34:31.655Z,78.50
2017-09-26T00:36:59.210Z,78.60
2017-09-26T00:39:26.770Z,79.40
2017-09-26T00:41:54.322Z,80.10
2017-09-26T00:44:21.904Z,79.70
2017-09-26T00:46:49.459Z,80.10
2017-09-26T00:49:17.013Z,79.70
2017-09-26T00:51:44.597Z,80.00
2017-09-26T00:54:12.915Z,79.50
2017-09-26T00:56:40.514Z,79.40
2017-09-26T00:59:08.065Z,78.00
2017-09-26T01:01:35.630Z,77.70
2017-09-26T01:04:04.730Z,77.70
2017-09-26T01:06:38.081Z,77.00
2017-09-26T01:09:05.666Z,76.60
2017-09-26T01:11:33.221Z,76.50
2017-09-26T01:14:00.781Z,76.70
2017-09-26T01:16:28.333Z,77.10
2017-09-26T01:18:55.897Z,77.30
2017-09-26T01:21:23.481Z,76.90
2017-09-26T01:23:51.037Z,76.70
2017-09-26T01:26:18.594Z,77.20
2017-09-26T01:28:46.918Z,77.20
2017-09-26T01:31:14.485Z,77.20
2017-09-26T01:33:42.065Z,77.20
2017-09-26T01:36:09.621Z,76.80
2017-09-26T01:38:37.174Z,76.30
2017-09-26T01:41:16.574Z,76.50
2017-09-26T01:43:45.192Z,78.40
2017-09-26T01:46:12.778Z,78.40
2017-09-26T01:48:40.334Z,78.30
2017-09-26T01:51:07.895Z,77.70
2017-09-26T01:53:35.466Z,77.00
2017-09-26T01:56:03.020Z,77.90
2017-09-26T01:58:33.050Z,77.80
2017-09-26T02:01:00.623Z,77.20
2017-09-26T02:03:28.946Z,76.30
2017-09-26T02:05:56.525Z,76.20
2017-09-26T02:08:24.081Z,76.20
2017-09-26T02:10:52.471Z,76.00
2017-09-26T02:13:20.026Z,75.30
2017-09-26T02:15:47.582Z,76.30
2017-09-26T02:18:15.136Z,76.30
2017-09-26T02:20:42.692Z,76.10
2017-09-26T02:23:10.287Z,75.80
2017-09-26T02:25:38.614Z,76.20
2017-09-26T02:28:06.189Z,76.20
2017-09-26T02:30:33.746Z,76.90
2017-09-26T02:33:01.427Z,77.50
2017-09-26T02:35:29.011Z,77.40
2017-09-26T02:37:57.332Z,76.80
2017-09-26T02:40:24.884Z,76.80
2017-09-26T02:42:52.438Z,76.50
2017-09-26T02:45:19.996Z,76.10
2017-09-26T02:47:48.233Z,76.60
2017-09-26T02:50:16.549Z,75.80
2017-09-26T02:52:44.116Z,75.70
2017-09-26T02:55:11.673Z,75.90
2017-09-26T02:57:39.241Z,75.40
2017-09-26T03:00:06.833Z,75.10
2017-09-26T03:02:34.400Z,75.60
2017-09-26T03:05:02.739Z,75.30
2017-09-26T03:07:30.300Z,75.30
2017-09-26T03:09:57.858Z,75.40
2017-09-26T03:12:25.434Z,75.90
2017-09-26T03:14:52.989Z,75.80
2017-09-26T03:17:20.593Z,76.50
2017-09-26T03:19:48.158Z,76.10
2017-09-26T03:22:15.713Z,75.80
2017-09-26T03:24:43.298Z,76.10
2017-09-26T03:27:10.909Z,75.70
2017-09-26T03:29:39.235Z,76.20
2017-09-26T03:32:06.794Z,76.20
2017-09-26T03:34:34.350Z,76.20
2017-09-26T03:37:01.931Z,77.00
2017-09-26T03:39:29.485Z,77.10
2017-09-26T03:41:57.042Z,76.80
2017-09-26T03:44:24.603Z,77.60
2017-09-26T03:46:52.167Z,77.60
2017-09-26T03:49:19.750Z,77.80
2017-09-26T03:51:48.082Z,77.30
2017-09-26T03:54:15.643Z,77.20
2017-09-26T03:56:43.198Z,76.80
2017-09-26T03:59:10.755Z,77.50
2017-09-26T04:01:38.338Z,78.30
2017-09-26T04:04:05.898Z,77.30
2017-09-26T04:06:33.454Z,76.70
2017-09-26T04:09:01.009Z,77.00
2017-09-26T04:11:28.568Z,77.80
2017-09-26T04:13:56.146Z,77.40
2017-09-26T04:16:23.702Z,76.60
2017-09-26T04:18:51.261Z,77.10
2017-09-26T04:21:18.817Z,76.50
2017-09-26T04:23:46.382Z,76.20
2017-09-26T04:26:13.974Z,76.20
2017-09-26T04:28:41.534Z,75.80
2017-09-26T04:31:09.093Z,75.70
2017-09-26T04:33:37.413Z,75.00
2017-09-26T04:36:04.965Z,74.80
2017-09-26T04:38:32.546Z,74.20
2017-09-26T04:41:00.129Z,74.10
2017-09-26T04:43:28.461Z,75.40
2017-09-26T04:45:56.017Z,74.40
2017-09-26T04:48:23.572Z,74.80
2017-09-26T04:50:51.151Z,74.00
2017-09-26T04:53:18.706Z,73.80
2017-09-26T04:55:46.262Z,73.60
2017-09-26T04:58:13.820Z,73.80
2017-09-26T05:00:41.382Z,74.20
2017-09-26T05:03:08.962Z,73.90
2017-09-26T05:05:36.566Z,73.90
2017-09-26T05:08:04.126Z,73.90
2017-09-26T05:10:31.686Z,74.30
2017-09-26T05:12:59.260Z,74.00
2017-09-26T05:15:26.838Z,73.60
2017-09-26T05:17:54.398Z,73.40
2017-09-26T05:20:21.954Z,74.10
2017-09-26T05:22:49.513Z,74.30
2017-09-26T05:25:17.072Z,73.50
2017-09-26T05:27:44.653Z,73.40
2017-09-26T05:30:12.249Z,73.40
2017-09-26T05:32:39.807Z,73.80
2017-09-26T05:35:07.363Z,75.10
2017-09-26T05:37:34.918Z,74.60
2017-09-26T05:40:03.263Z,74.00
2017-09-26T05:42:30.825Z,73.90
2017-09-26T05:44:58.383Z,73.90
2017-09-26T05:47:25.946Z,73.70
2017-09-26T05:49:53.499Z,73.30
2017-09-26T05:52:21.078Z,73.10
2017-09-26T05:54:49.403Z,72.90
2017-09-26T05:57:16.959Z,72.80
2017-09-26T05:59:44.519Z,72.70
2017-09-26T06:02:12.075Z,72.50
2017-09-26T06:04:39.657Z,73.00
2017-09-26T06:07:07.214Z,73.10
2017-09-26T06:09:34.775Z,72.80
2017-09-26T06:12:02.334Z,72.90
2017-09-26T06:14:29.905Z,72.40
2017-09-26T06:16:57.498Z,72.50
2017-09-26T06:19:25.061Z,72.50
2017-09-26T06:21:52.616Z,72.60
2017-09-26T06:24:20.942Z,71.90
2017-09-26T06:26:48.498Z,71.80
2017-09-26T06:29:16.150Z,71.70
2017-09-26T06:31:43.764Z,71.70
2017-09-26T06:34:12.086Z,71.50
2017-09-26T06:36:39.639Z,71.50
2017-09-26T06:39:07.573Z,71.30
2017-09-26T06:41:35.410Z,71.40
2017-09-26T06:44:03.432Z,72.10
2017-09-26T06:46:31.203Z,72.00
2017-09-26T06:48:59.234Z,71.50
2017-09-26T06:51:27.854Z,71.40
2017-09-26T06:53:55.874Z,71.40
2017-09-26T06:56:23.667Z,71.00
2017-09-26T06:58:51.462Z,70.20
2017-09-26T07:01:19.022Z,69.80
2017-09-26T07:03:46.582Z,69.90
2017-09-26T07:06:14.430Z,68.90
2017-09-26T07:08:42.218Z,68.80
2017-09-26T07:11:09.964Z,69.50
2017-09-26T07:13:37.695Z,69.60
2017-09-26T07:16:06.202Z,69.80
2017-09-26T07:18:33.789Z,69.70
2017-09-26T07:21:01.351Z,69.60
2017-09-26T07:23:28.909Z,69.80
2017-09-26T07:25:56.471Z,69.80
2017-09-26T07:28:24.116Z,70.20
2017-09-26T07:30:51.674Z,70.30
2017-09-26T07:33:19.226Z,70.50
2017-09-26T07:35:46.784Z,71.00
2017-09-26T07:38:14.344Z,70.90
2017-09-26T07:40:41.921Z,70.70
2017-09-26T07:43:09.483Z,70.00
2017-09-26T07:45:37.155Z,69.70
2017-09-26T07:48:04.738Z,69.60
2017-09-26T07:50:33.061Z,70.40
2017-09-26T07:53:00.620Z,70.20
2017-09-26T07:55:28.198Z,70.60
2017-09-26T07:57:55.753Z,70.60
2017-09-26T08:00:23.874Z,69.90
2017-09-26T08:02:52.227Z,69.70
2017-09-26T08:05:20.122Z,69.80
2017-09-26T08:07:49.730Z,69.80
2017-09-26T08:10:17.322Z,69.80
2017-09-26T08:12:45.523Z,69.70
2017-09-26T08:15:13.078Z,68.40
2017-09-26T08:17:40.657Z,68.40
2017-09-26T08:20:08.219Z,67.50
2017-09-26T08:22:35.780Z,66.90
2017-09-26T08:25:04.130Z,65.80
2017-09-26T08:27:31.689Z,65.70
2017-09-26T08:29:59.251Z,66.30
2017-09-26T08:32:26.838Z,65.70
2017-09-26T08:34:55.162Z,66.70
2017-09-26T08:37:22.721Z,66.70
2017-09-26T08:39:50.309Z,65.80
2017-09-26T08:42:17.861Z,65.70
2017-09-26T08:44:45.426Z,65.70
2017-09-26T08:47:13.014Z,66.80
2017-09-26T08:49:41.344Z,66.70
2017-09-26T08:52:08.901Z,66.60
2017-09-26T08:54:36.485Z,66.40
2017-09-26T08:57:04.045Z,66.50
2017-09-26T08:59:31.607Z,66.80
2017-09-26T09:01:59.194Z,67.30
2017-09-26T09:04:27.519Z,67.20
2017-09-26T09:06:55.083Z,67.20
2017-09-26T09:09:24.287Z,67.40
2017-09-26T09:11:51.854Z,67.30
2017-09-26T09:14:19.414Z,67.50
2017-09-26T09:16:46.993Z,67.10
2017-09-26T09:19:15.322Z,66.80
2017-09-26T09:21:42.878Z,66.70
2017-09-26T09:24:10.462Z,67.00
2017-09-26T09:26:38.017Z,66.90
2017-09-26T09:29:05.574Z,66.90
2017-09-26T09:31:33.202Z,67.00
2017-09-26T09:34:00.759Z,66.90
2017-09-26T09:36:28.329Z,67.10
2017-09-26T09:38:55.911Z,67.00
2017-09-26T09:41:23.489Z,67.50
2017-09-26T09:43:51.042Z,67.30
2017-09-26T09:46:18.667Z,67.60
2017-09-26T09:48:46.233Z,67.50
2017-09-26T09:51:13.784Z,67.60
2017-09-26T09:53:41.369Z,67.30
2017-09-26T09:56:08.931Z,67.10
2017-09-26T09:58:36.492Z,67.40
2017-09-26T10:01:04.083Z,66.70
2017-09-26T10:03:32.403Z,66.80
2017-09-26T10:05:59.958Z,66.70
2017-09-26T10:08:27.541Z,66.70
2017-09-26T10:10:55.099Z,66.30
2017-09-26T10:13:22.654Z,66.50
2017-09-26T10:15:50.237Z,66.10
2017-09-26T10:18:17.794Z,66.10
2017-09-26T10:20:45.350Z,66.30
2017-09-26T10:23:12.935Z,65.50
2017-09-26T10:25:41.253Z,64.20
2017-09-26T10:28:08.810Z,64.20
2017-09-26T10:30:36.395Z,63.90
2017-09-26T10:33:03.958Z,64.10
2017-09-26T10:35:31.513Z,64.10
2017-09-26T10:37:59.105Z,63.80
2017-09-26T10:40:27.424Z,63.50
2017-09-26T10:42:55.003Z,63.40
2017-09-26T10:45:22.581Z,63.30
2017-09-26T10:47:50.138Z,62.80
2017-09-26T10:50:17.691Z,62.80
2017-09-26T10:52:45.278Z,62.50
2017-09-26T10:55:13.599Z,62.40
2017-09-26T10:57:41.154Z,62.20
2017-09-26T11:00:08.738Z,62.40
2017-09-26T11:02:36.297Z,62.70
2017-09-26T11:05:03.846Z,62.60
2017-09-26T11:07:31.431Z,62.40
2017-09-26T11:09:58.984Z,62.60
2017-09-26T11:12:26.542Z,62.40
2017-09-26T11:14:54.102Z,62.90
2017-09-26T11:17:21.657Z,63.30
2017-09-26T11:19:49.247Z,63.60
2017-09-26T11:22:17.581Z,64.00
2017-09-26T11:24:45.147Z,64.00
2017-09-26T11:27:12.766Z,64.70
2017-09-26T11:29:40.336Z,65.00
2017-09-26T11:32:07.944Z,65.30
2017-09-26T11:34:35.502Z,65.90
2017-09-26T11:37:03.065Z,66.10
2017-09-26T11:39:30.622Z,65.80
2017-09-26T11:41:58.182Z,66.80
2017-09-26T11:44:26.510Z,65.80
2017-09-26T11:46:54.090Z,65.60
2017-09-26T11:49:21.732Z,65.80
2017-09-26T11:51:49.292Z,65.90
2017-09-26T11:54:16.845Z,65.90
2017-09-26T11:56:44.418Z,65.20
2017-09-26T11:59:11.981Z,66.10
2017-09-26T12:01:39.541Z,65.70
2017-09-26T12:04:07.118Z,64.90
2017-09-26T12:06:34.709Z,65.50
2017-09-26T12:09:03.030Z,63.80
2017-09-26T12:11:30.582Z,63.80
2017-09-26T12:14:03.889Z,62.10
2017-09-26T12:16:31.450Z,61.50
2017-09-26T12:18:59.006Z,60.90
2017-09-26T12:21:26.586Z,60.60
2017-09-26T12:23:54.149Z,60.00
2017-09-26T12:26:21.705Z,60.60
2017-09-26T12:28:49.294Z,58.40
2017-09-26T12:31:17.651Z,57.50
2017-09-26T12:33:45.215Z,57.40
2017-09-26T12:36:13.571Z,55.60
2017-09-26T12:38:41.126Z,55.40
2017-09-26T12:41:08.678Z,55.10
2017-09-26T12:43:36.254Z,54.40
2017-09-26T12:46:03.822Z,52.00
2017-09-26T12:48:31.382Z,50.70
2017-09-26T12:50:58.934Z,50.00
2017-09-26T12:53:26.490Z,50.00
2017-09-26T12:55:54.080Z,50.30
2017-09-26T12:58:21.640Z,49.50
2017-09-26T13:00:49.205Z,48.90
2017-09-26T13:03:16.777Z,48.50
2017-09-26T13:05:44.327Z,48.50
2017-09-26T13:08:11.906Z,48.60
2017-09-26T13:10:39.475Z,48.80
2017-09-26T13:13:07.042Z,49.40
2017-09-26T13:15:34.601Z,49.20
2017-09-26T13:18:02.162Z,49.20
2017-09-26T13:20:29.742Z,49.60
2017-09-26T13:22:57.295Z,50.60
2017-09-26T13:25:24.854Z,51.20
2017-09-26T13:27:52.405Z,51.50
2017-09-26T13:30:19.958Z,52.10
2017-09-26T13:32:47.546Z,52.20
2017-09-26T13:35:15.098Z,52.90
2017-09-26T13:37:42.649Z,53.30
2017-09-26T13:40:10.202Z,53.30
2017-09-26T13:42:37.762Z,54.20
2017-09-26T13:45:05.338Z,54.60
2017-09-26T13:47:32.894Z,55.00
2017-09-26T13:50:00.475Z,55.10
2017-09-26T13:52:28.041Z,55.30
2017-09-26T13:54:55.604Z,55.10
2017-09-26T13:57:23.192Z,54.20
2017-09-26T13:59:50.752Z,53.00
2017-09-26T14:02:18.311Z,53.30
2017-09-26T14:04:45.880Z,53.50
2017-09-26T14:07:13.441Z,53.90
2017-09-26T14:09:41.050Z,54.40
2017-09-26T14:12:09.370Z,54.50
2017-09-26T14:14:36.932Z,54.50
2017-09-26T14:17:04.486Z,54.00
2017-09-26T14:19:32.041Z,52.30
2017-09-26T14:21:59.632Z,51.00
2017-09-26T14:24:27.189Z,49.50
2017-09-26T14:26:54.745Z,48.40
2017-09-26T14:29:22.402Z,47.00
2017-09-26T14:31:49.962Z,44.60
2017-09-26T14:34:17.542Z,41.50
2017-09-26T14:36:45.100Z,38.90
2017-09-26T14:39:12.697Z,37.70
2017-09-26T14:41:51.867Z,35.70
2017-09-26T14:44:21.642Z,32.80
2017-09-26T14:46:49.519Z,32.80
2017-09-26T14:49:17.387Z,32.80
2017-09-26T14:51:44.978Z,32.60
2017-09-26T14:54:12.534Z,32.20
2017-09-26T14:56:40.091Z,32.50
2017-09-26T14:59:07.681Z,32.00
2017-09-26T15:01:36.006Z,32.00
2017-09-26T15:04:03.559Z,32.00
2017-09-26T15:06:31.186Z,32.60
2017-09-26T15:08:59.561Z,32.80
2017-09-26T15:11:27.906Z,33.40
2017-09-26T15:13:55.735Z,33.30
2017-09-26T15:16:23.690Z,33.70
2017-09-26T15:18:51.421Z,33.30
2017-09-26T15:21:18.991Z,33.50
2017-09-26T15:23:47.337Z,34.50
2017-09-26T15:26:14.893Z,34.40
2017-09-26T15:28:50.634Z,35.10
2017-09-26T15:31:19.108Z,38.80
2017-09-26T15:33:46.665Z,38.70
2017-09-26T15:36:14.225Z,40.30
2017-09-26T15:38:41.943Z,41.50
2017-09-26T15:41:10.266Z,44.10
2017-09-26T15:43:37.922Z,44.10
2017-09-26T15:46:06.694Z,45.60
2017-09-26T15:48:34.631Z,45.60
2017-09-26T15:51:03.050Z,47.20
2017-09-26T15:53:30.712Z,47.30
2017-09-26T15:55:58.376Z,48.00
2017-09-26T15:58:27.105Z,49.90
2017-09-26T16:00:54.859Z,49.70
2017-09-26T16:03:22.417Z,49.80
2017-09-26T16:05:50.147Z,50.30
2017-09-26T16:08:18.779Z,51.50
2017-09-26T16:10:47.709Z,52.10
2017-09-26T16:13:15.485Z,52.00
2017-09-26T16:15:43.342Z,52.50
2017-09-26T16:18:11.088Z,53.10
2017-09-26T16:20:38.642Z,53.50
2017-09-26T16:23:07.005Z,54.80
2017-09-26T16:25:35.333Z,55.10
2017-09-26T16:28:02.890Z,55.10
2017-09-26T16:30:30.482Z,55.60
2017-09-26T16:32:58.041Z,56.30
2017-09-26T16:35:25.602Z,57.10
2017-09-26T16:37:53.192Z,57.60
2017-09-26T16:40:21.513Z,59.10
2017-09-26T16:42:49.086Z,59.00
2017-09-26T16:45:16.670Z,59.50
2017-09-26T16:47:45.018Z,60.70
2017-09-26T16:50:12.614Z,60.60
2017-09-26T16:52:40.937Z,61.80
2017-09-26T16:55:08.510Z,61.80
2017-09-26T16:57:36.061Z,62.20
2017-09-26T17:00:03.634Z,62.30
2017-09-26T17:02:31.213Z,62.90
2017-09-26T17:04:58.773Z,63.20
2017-09-26T17:07:26.334Z,63.80
2017-09-26T17:09:53.894Z,63.50
2017-09-26T17:12:21.450Z,63.50
2017-09-26T17:14:49.033Z,63.80
2017-09-26T17:17:17.389Z,64.00
2017-09-26T17:19:44.946Z,63.90
2017-09-26T17:22:12.509Z,64.30
2017-09-26T17:24:40.066Z,65.00
2017-09-26T17:27:07.654Z,65.30
2017-09-26T17:29:35.214Z,65.00
2017-09-26T17:32:02.774Z,64.40
2017-09-26T17:34:30.350Z,64.10
2017-09-26T17:36:57.930Z,63.90
2017-09-26T17:39:25.511Z,63.90
2017-09-26T17:41:53.070Z,63.80
2017-09-26T17:44:20.631Z,64.10
2017-09-26T17:46:48.185Z,64.10
2017-09-26T17:49:15.742Z,64.30
2017-09-26T17:51:44.093Z,64.80
2017-09-26T17:54:11.679Z,64.90
2017-09-26T17:56:40.017Z,64.70
2017-09-26T17:59:07.577Z,64.70
2017-09-26T18:01:35.135Z,64.70
2017-09-26T18:04:02.723Z,65.00
2017-09-26T18:06:30.278Z,65.00
2017-09-26T18:08:57.878Z,65.30
2017-09-26T18:11:26.201Z,65.50
2017-09-26T18:13:53.765Z,65.50
2017-09-26T18:16:21.356Z,65.70
2017-09-26T18:18:49.691Z,65.60
2017-09-26T18:21:17.250Z,65.50
2017-09-26T18:23:44.810Z,66.30
2017-09-26T18:26:12.370Z,66.10
2017-09-26T18:28:39.950Z,66.10
2017-09-26T18:31:07.505Z,66.10
2017-09-26T18:33:35.067Z,66.30
2017-09-26T18:36:02.643Z,66.50
2017-09-26T18:38:30.204Z,67.00
2017-09-26T18:40:57.786Z,66.80
2017-09-26T18:43:26.174Z,66.70
2017-09-26T18:45:53.733Z,66.60
2017-09-26T18:48:22.183Z,66.50
2017-09-26T18:50:49.757Z,67.00
2017-09-26T18:53:18.113Z,67.20
2017-09-26T18:55:45.669Z,67.20
2017-09-26T18:58:13.222Z,67.30
2017-09-26T19:00:40.783Z,67.20
2017-09-26T19:03:08.349Z,67.10
2017-09-26T19:05:35.931Z,67.20
2017-09-26T19:08:04.268Z,67.70
2017-09-26T19:10:31.825Z,67.60
2017-09-26T19:12:59.386Z,67.60
2017-09-26T19:15:26.937Z,67.60
2017-09-26T19:17:54.522Z,67.80
2017-09-26T19:20:22.082Z,68.20
2017-09-26T19:22:49.645Z,68.00
2017-09-26T19:25:17.203Z,67.70
2017-09-26T19:27:44.760Z,67.80
2017-09-26T19:30:12.346Z,67.80
2017-09-26T19:32:40.670Z,67.90
2017-09-26T19:35:08.229Z,67.90
2017-09-26T19:37:35.801Z,68.20
2017-09-26T19:40:03.389Z,68.40
2017-09-26T19:42:31.750Z,68.50
2017-09-26T19:44:59.309Z,68.50
2017-09-26T19:47:26.867Z,68.60
2017-09-26T19:49:55.193Z,69.90
2017-09-26T19:52:22.754Z,69.90
2017-09-26T19:54:50.354Z,69.70
2017-09-26T19:57:17.914Z,69.20
2017-09-26T19:59:45.474Z,69.30
2017-09-26T20:02:13.034Z,69.50
2017-09-26T20:04:40.602Z,69.40
2017-09-26T20:07:08.189Z,70.00
2017-09-26T20:09:35.759Z,70.20
2017-09-26T20:12:03.317Z,70.10
2017-09-26T20:14:30.882Z,70.10
2017-09-26T20:16:58.477Z,69.40
2017-09-26T20:19:26.061Z,69.40
2017-09-26T20:21:54.397Z,69.00
2017-09-26T20:24:21.986Z,69.00
2017-09-26T20:26:49.549Z,69.10
2017-09-26T20:29:17.100Z,68.60
2017-09-26T20:31:44.685Z,68.60
2017-09-26T20:34:13.009Z,68.80
2017-09-26T20:36:40.570Z,68.70
2017-09-26T20:39:08.130Z,68.80
2017-09-26T20:41:35.690Z,68.80
2017-09-26T20:44:03.284Z,68.60
2017-09-26T20:46:30.840Z,68.40
2017-09-26T20:48:58.405Z,68.20
2017-09-26T20:51:25.966Z,68.50
2017-09-26T20:53:53.529Z,68.30
2017-09-26T20:56:21.878Z,68.00
2017-09-26T20:58:49.438Z,68.00
2017-09-26T21:01:17.164Z,68.10
2017-09-26T21:03:45.028Z,68.20
2017-09-26T21:06:12.803Z,68.20
2017-09-26T21:08:40.664Z,68.40
2017-09-26T21:11:08.228Z,68.50
2017-09-26T21:13:38.698Z,68.30
2017-09-26T21:16:07.850Z,68.30
2017-09-26T21:18:35.411Z,68.30
2017-09-26T21:21:03.278Z,68.20
2017-09-26T21:23:30.918Z,68.30
2017-09-26T21:25:58.634Z,68.50
2017-09-26T21:28:27.714Z,68.60
2017-09-26T21:30:55.605Z,68.50
2017-09-26T21:33:23.405Z,69.10
2017-09-26T21:35:51.150Z,69.10
2017-09-26T21:38:20.387Z,68.90
2017-09-26T21:40:47.946Z,68.90
2017-09-26T21:43:15.499Z,68.70
2017-09-26T21:45:43.082Z,68.70
2017-09-26T21:48:10.755Z,68.60
2017-09-26T21:50:38.313Z,68.80
2017-09-26T21:53:05.876Z,68.70
2017-09-26T21:55:33.509Z,68.80
2017-09-26T21:58:01.398Z,69.00
2017-09-26T22:00:28.962Z,69.00
2017-09-26T22:02:56.521Z,69.00
2017-09-26T22:05:24.076Z,68.80
2017-09-26T22:07:51.679Z,69.00
2017-09-26T22:10:19.269Z,69.00
2017-09-26T22:12:46.841Z,68.90
2017-09-26T22:15:14.402Z,69.00
2017-09-26T22:17:41.988Z,69.40
2017-09-26T22:20:09.543Z,69.10
2017-09-26T22:22:37.125Z,69.30
2017-09-26T22:25:05.444Z,69.30
2017-09-26T22:27:33.009Z,69.20
2017-09-26T22:30:00.566Z,69.30
2017-09-26T22:32:28.118Z,69.20
2017-09-26T22:34:55.706Z,69.20
2017-09-26T22:37:23.266Z,69.20
2017-09-26T22:39:50.830Z,69.60
2017-09-26T22:42:18.391Z,69.80
2017-09-26T22:44:46.019Z,69.60
2017-09-26T22:47:13.603Z,69.40
2017-09-26T22:49:41.167Z,69.40
2017-09-26T22:52:08.725Z,69.40
2017-09-26T22:54:36.284Z,69.20
2017-09-26T22:57:03.834Z,69.30
2017-09-26T22:59:31.415Z,69.20
2017-09-26T23:01:59.741Z,69.40
2017-09-26T23:04:27.302Z,69.40
2017-09-26T23:06:54.869Z,70.00
2017-09-26T23:09:22.421Z,69.00
2017-09-26T23:11:50.006Z,69.30
2017-09-26T23:51:49.910Z,71.00
2017-09-26T23:54:17.492Z,70.90
2017-09-26T23:56:45.047Z,70.90
2017-09-26T23:59:12.604Z,70.40
